createdAt,value
2022-10-06T00:01:13.860Z,14.00
2022-10-06T00:03:40.854Z,15.90
2022-10-06T00:06:08.411Z,15.82
2022-10-06T00:08:37.135Z,15.25
2022-10-06T00:11:04.281Z,14.32
2022-10-06T00:14:18.728Z,13.50
2022-10-06T00:16:45.784Z,14.05
2022-10-06T00:19:12.466Z,14.23
2022-10-06T00:21:39.181Z,12.93
2022-10-06T00:24:06.152Z,13.90
2022-10-06T00:26:32.801Z,16.88
2022-10-06T00:28:59.444Z,15.48
2022-10-06T00:31:26.523Z,18.15
2022-10-06T00:37:36.520Z,13.85
2022-10-06T00:40:09.673Z,14.20
2022-10-06T00:43:42.438Z,11.88
2022-10-06T00:46:36.110Z,12.43
2022-10-06T00:49:15.814Z,12.38
2022-10-06T00:51:47.397Z,14.50
2022-10-06T00:54:14.636Z,13.02
2022-10-06T00:57:06.604Z,14.32
2022-10-06T00:59:33.521Z,13.73
2022-10-06T01:02:28.744Z,13.85
2022-10-06T01:08:48.062Z,10.48
2022-10-06T01:11:14.796Z,11.77
2022-10-06T01:13:44.349Z,12.30
2022-10-06T01:16:16.252Z,13.48
2022-10-06T01:18:45.718Z,12.38
2022-10-06T01:21:24.485Z,10.93
2022-10-06T01:23:54.692Z,12.43
2022-10-06T01:26:25.847Z,13.43
2022-10-06T01:28:52.752Z,13.52
2022-10-06T01:31:21.417Z,14.07
2022-10-06T01:33:52.554Z,14.45
2022-10-06T01:36:19.794Z,13.88
2022-10-06T01:38:52.206Z,14.10
2022-10-06T01:41:27.165Z,12.05
2022-10-06T01:43:53.863Z,11.60
2022-10-06T01:46:21.227Z,13.75
2022-10-06T01:48:48.037Z,13.70
2022-10-06T01:51:18.678Z,11.55
2022-10-06T01:53:57.660Z,15.30
2022-10-06T01:56:24.365Z,11.55
2022-10-06T01:59:16.316Z,12.88
2022-10-06T02:01:43.054Z,12.70
2022-10-06T02:04:09.814Z,12.38
2022-10-06T02:06:36.602Z,12.23
2022-10-06T02:09:03.513Z,10.85
2022-10-06T02:11:30.638Z,12.80
2022-10-06T02:13:57.296Z,10.73
2022-10-06T02:16:24.014Z,15.93
2022-10-06T02:18:50.837Z,13.07
2022-10-06T02:21:19.549Z,14.07
2022-10-06T02:23:46.537Z,11.23
2022-10-06T02:26:13.703Z,12.13
2022-10-06T02:28:40.586Z,13.48
2022-10-06T02:31:11.860Z,14.80
2022-10-06T02:33:39.861Z,14.13
2022-10-06T02:36:43.010Z,13.40
2022-10-06T02:39:09.644Z,16.50
2022-10-06T02:41:36.267Z,13.70
2022-10-06T02:44:02.979Z,10.85
2022-10-06T02:46:31.096Z,14.45
2022-10-06T02:48:57.762Z,11.40
2022-10-06T02:51:24.612Z,11.75
2022-10-06T02:53:54.495Z,12.35
2022-10-06T02:56:24.008Z,12.32
2022-10-06T02:58:52.178Z,13.40
2022-10-06T03:01:25.582Z,12.32
2022-10-06T03:04:37.021Z,12.93
2022-10-06T03:07:03.828Z,13.00
2022-10-06T03:09:30.560Z,11.68
2022-10-06T03:11:57.220Z,12.95
2022-10-06T03:14:23.864Z,12.73
2022-10-06T03:16:54.757Z,13.18
2022-10-06T03:19:21.453Z,14.32
2022-10-06T03:21:48.300Z,15.82
2022-10-06T03:24:15.444Z,11.98
2022-10-06T03:26:45.397Z,11.82
2022-10-06T03:29:12.438Z,13.90
2022-10-06T03:32:14.364Z,12.02
2022-10-06T03:34:41.040Z,12.98
2022-10-06T03:37:07.676Z,13.93
2022-10-06T03:39:46.380Z,12.65
2022-10-06T03:42:12.998Z,14.85
2022-10-06T03:44:40.053Z,13.32
2022-10-06T03:49:50.449Z,12.75
2022-10-06T03:52:18.002Z,10.35
2022-10-06T03:54:45.902Z,11.02
2022-10-06T03:57:31.022Z,13.15
2022-10-06T03:59:59.823Z,15.65
2022-10-06T04:02:26.531Z,11.75
2022-10-06T04:04:53.194Z,13.02
2022-10-06T04:07:19.813Z,11.20
2022-10-06T04:09:46.437Z,12.65
2022-10-06T04:12:13.062Z,12.30
2022-10-06T04:14:40.081Z,11.68
2022-10-06T04:17:07.004Z,11.98
2022-10-06T04:26:03.344Z,12.48
2022-10-06T04:28:30.530Z,13.10
2022-10-06T04:31:14.658Z,10.75
2022-10-06T04:33:50.116Z,14.20
2022-10-06T04:36:44.601Z,13.57
2022-10-06T04:42:51.656Z,13.27
2022-10-06T04:45:18.351Z,12.32
2022-10-06T04:47:45.029Z,13.45
2022-10-06T04:50:14.476Z,14.77
2022-10-06T04:55:16.322Z,15.63
2022-10-06T04:57:43.148Z,13.30
2022-10-06T05:00:22.850Z,12.57
2022-10-06T05:02:49.637Z,12.65
2022-10-06T05:05:16.365Z,12.90
2022-10-06T05:07:46.504Z,12.88
2022-10-06T05:10:15.688Z,13.48
2022-10-06T05:12:42.503Z,12.85
2022-10-06T05:15:10.444Z,13.65
2022-10-06T05:17:37.112Z,13.77
2022-10-06T05:20:04.186Z,11.98
2022-10-06T05:29:36.619Z,12.40
2022-10-06T05:32:03.575Z,12.55
2022-10-06T05:34:30.337Z,16.42
2022-10-06T05:36:57.364Z,13.77
2022-10-06T05:39:24.045Z,15.77
2022-10-06T05:42:10.585Z,12.23
2022-10-06T05:52:05.124Z,10.77
2022-10-06T05:54:31.832Z,13.57
2022-10-06T05:56:58.462Z,11.20
2022-10-06T05:59:25.634Z,14.10
2022-10-06T06:01:52.434Z,11.40
2022-10-06T06:05:24.319Z,14.10
2022-10-06T06:07:50.975Z,12.85
2022-10-06T06:10:17.664Z,13.98
2022-10-06T06:13:14.594Z,12.90
2022-10-06T06:16:05.910Z,12.82
2022-10-06T06:22:55.499Z,14.85
2022-10-06T06:25:22.144Z,14.48
2022-10-06T06:27:55.503Z,16.83
2022-10-06T06:30:25.784Z,14.38
2022-10-06T06:36:37.047Z,15.35
2022-10-06T06:41:55.877Z,14.82
2022-10-06T06:44:23.800Z,14.25
2022-10-06T06:46:50.435Z,13.52
2022-10-06T06:49:53.860Z,14.40
2022-10-06T06:53:39.147Z,13.95
2022-10-06T06:56:08.309Z,13.77
2022-10-06T06:58:38.429Z,16.05
2022-10-06T07:04:12.816Z,15.93
2022-10-06T07:14:15.096Z,12.55
2022-10-06T07:17:00.728Z,14.70
2022-10-06T07:19:45.881Z,13.93
2022-10-06T07:22:36.542Z,13.38
2022-10-06T07:25:25.107Z,14.75
2022-10-06T07:28:20.323Z,15.30
2022-10-06T07:30:47.030Z,14.02
2022-10-06T07:33:15.721Z,14.60
2022-10-06T07:35:42.413Z,20.27
2022-10-06T07:43:46.815Z,18.75
2022-10-06T07:46:14.387Z,15.85
2022-10-06T07:48:49.714Z,23.30
2022-10-06T07:54:58.482Z,20.77
2022-10-06T07:57:37.083Z,15.82
2022-10-06T08:00:05.473Z,18.85
2022-10-06T08:02:35.531Z,18.90
2022-10-06T08:06:06.462Z,14.68
2022-10-06T08:08:37.833Z,15.63
2022-10-06T08:14:55.088Z,15.43
2022-10-06T08:17:37.932Z,15.60
2022-10-06T08:20:07.665Z,16.55
2022-10-06T08:22:36.066Z,13.95
2022-10-06T08:25:07.038Z,13.50
2022-10-06T08:28:03.432Z,15.20
2022-10-06T08:34:24.555Z,14.25
2022-10-06T08:37:08.585Z,15.93
2022-10-06T08:43:00.314Z,21.92
2022-10-06T08:45:50.604Z,22.05
2022-10-06T08:48:30.100Z,16.17
2022-10-06T08:51:30.023Z,15.63
2022-10-06T08:54:11.295Z,14.05
2022-10-06T08:57:06.412Z,16.05
2022-10-06T09:03:25.459Z,17.35
2022-10-06T09:05:58.437Z,14.43
2022-10-06T09:11:44.257Z,17.85
2022-10-06T09:14:40.220Z,14.20
2022-10-06T09:17:12.848Z,20.05
2022-10-06T09:19:48.964Z,14.38
2022-10-06T09:22:21.256Z,19.75
2022-10-06T09:24:51.720Z,18.13
2022-10-06T09:27:23.918Z,15.68
2022-10-06T09:33:34.695Z,19.23
2022-10-06T09:36:09.628Z,23.10
2022-10-06T09:39:37.178Z,24.67
2022-10-06T09:42:29.745Z,24.20
2022-10-06T09:45:04.860Z,22.15
2022-10-06T09:55:10.932Z,23.45
2022-10-06T09:57:28.716Z,20.27
2022-10-06T09:59:58.002Z,19.23
2022-10-06T10:02:37.162Z,22.60
2022-10-06T10:05:21.014Z,21.58
2022-10-06T10:12:25.358Z,22.17
2022-10-06T10:18:26.393Z,25.42
2022-10-06T10:24:56.234Z,16.35
2022-10-06T10:27:31.683Z,22.25
2022-10-06T10:30:03.272Z,19.75
2022-10-06T10:32:38.356Z,23.90
2022-10-06T10:35:20.047Z,19.02
2022-10-06T10:37:46.755Z,19.27
2022-10-06T10:40:51.419Z,22.55
2022-10-06T10:43:32.698Z,20.92
2022-10-06T10:46:27.208Z,20.38
2022-10-06T10:49:31.340Z,20.58
2022-10-06T10:52:09.938Z,28.23
2022-10-06T10:55:18.482Z,22.90
2022-10-06T10:57:46.412Z,24.02
2022-10-06T11:00:22.975Z,24.50
2022-10-06T11:02:54.857Z,32.08
2022-10-06T11:05:36.880Z,28.95
2022-10-06T11:08:23.052Z,32.80
2022-10-06T11:11:03.524Z,29.98
2022-10-06T11:13:39.604Z,24.70
2022-10-06T11:16:37.153Z,26.00
2022-10-06T11:19:27.929Z,25.58
2022-10-06T11:22:22.931Z,25.17
2022-10-06T11:25:22.478Z,21.95
2022-10-06T11:28:07.218Z,26.08
2022-10-06T11:33:02.503Z,30.85
2022-10-06T11:35:37.469Z,24.60
2022-10-06T11:38:22.661Z,21.55
2022-10-06T11:41:11.734Z,20.45
2022-10-06T11:43:50.561Z,19.02
2022-10-06T11:46:32.328Z,22.05
2022-10-06T11:49:28.494Z,18.35
2022-10-06T11:52:15.047Z,20.98
2022-10-06T11:54:47.414Z,16.95
2022-10-06T11:57:29.386Z,17.30
2022-10-06T12:00:17.295Z,19.10
2022-10-06T12:02:46.182Z,17.70
2022-10-06T12:05:47.118Z,18.15
2022-10-06T12:08:00.655Z,14.68
2022-10-06T12:10:31.959Z,18.45
2022-10-06T12:14:12.317Z,16.92
2022-10-06T12:19:24.737Z,17.63
2022-10-06T12:22:17.245Z,24.27
2022-10-06T12:25:22.793Z,17.00
2022-10-06T12:28:12.817Z,18.52
2022-10-06T12:30:48.377Z,17.15
2022-10-06T12:33:19.506Z,16.23
2022-10-06T12:35:47.503Z,18.52
2022-10-06T12:38:35.337Z,21.95
2022-10-06T12:41:02.298Z,19.45
2022-10-06T12:43:34.967Z,33.72
2022-10-06T12:46:34.550Z,22.30
2022-10-06T12:49:14.199Z,22.33
2022-10-06T12:51:45.990Z,20.63
2022-10-06T12:54:25.006Z,21.73
2022-10-06T12:56:59.977Z,20.25
2022-10-06T12:59:32.425Z,19.48
2022-10-06T13:02:19.199Z,24.42
2022-10-06T13:04:53.436Z,28.35
2022-10-06T13:07:23.016Z,31.38
2022-10-06T13:09:53.316Z,29.17
2022-10-06T13:12:26.216Z,31.98
2022-10-06T13:15:16.256Z,24.92
2022-10-06T13:18:10.558Z,26.45
2022-10-06T13:20:40.049Z,19.67
2022-10-06T13:23:19.272Z,19.52
2022-10-06T13:25:53.052Z,21.67
2022-10-06T13:28:44.942Z,22.50
2022-10-06T13:31:22.138Z,24.92
2022-10-06T13:33:57.341Z,30.17
2022-10-06T13:36:24.885Z,31.92
2022-10-06T13:38:53.182Z,23.20
2022-10-06T13:41:28.844Z,23.33
2022-10-06T13:43:55.461Z,27.27
2022-10-06T13:46:25.504Z,28.05
2022-10-06T13:49:18.493Z,35.90
2022-10-06T13:51:51.829Z,29.17
2022-10-06T13:54:40.784Z,25.35
2022-10-06T13:57:45.004Z,22.75
2022-10-06T14:00:14.480Z,24.55
2022-10-06T14:02:42.875Z,26.95
2022-10-06T14:05:43.169Z,26.20
2022-10-06T14:08:09.729Z,25.92
2022-10-06T14:10:48.698Z,24.42
2022-10-06T14:13:48.290Z,26.05
2022-10-06T14:16:23.991Z,19.02
2022-10-06T14:18:58.305Z,20.20
2022-10-06T14:21:34.228Z,27.85
2022-10-06T14:24:06.174Z,30.85
2022-10-06T14:26:38.267Z,23.77
2022-10-06T14:29:06.449Z,25.58
2022-10-06T14:31:33.950Z,28.00
2022-10-06T14:34:01.463Z,31.15
2022-10-06T14:36:31.649Z,28.08
2022-10-06T14:38:59.531Z,22.38
2022-10-06T14:41:28.232Z,27.17
2022-10-06T14:44:02.771Z,27.35
2022-10-06T14:46:30.090Z,25.23
2022-10-06T14:48:57.130Z,25.27
2022-10-06T14:51:26.051Z,26.45
2022-10-06T14:53:58.177Z,26.00
2022-10-06T14:59:05.002Z,27.35
2022-10-06T15:01:33.438Z,26.55
2022-10-06T15:04:03.407Z,19.88
2022-10-06T15:06:48.630Z,24.20
2022-10-06T15:09:15.691Z,29.33
2022-10-06T15:11:42.397Z,24.35
2022-10-06T15:14:09.398Z,23.58
2022-10-06T15:16:40.678Z,23.00
2022-10-06T15:19:07.515Z,26.73
2022-10-06T15:21:34.635Z,27.02
2022-10-06T15:24:03.344Z,25.95
2022-10-06T15:26:49.546Z,34.90
2022-10-06T15:29:26.599Z,27.42
2022-10-06T15:31:54.794Z,25.98
2022-10-06T15:34:26.772Z,27.10
2022-10-06T15:36:55.248Z,28.60
2022-10-06T15:39:24.097Z,27.80
2022-10-06T15:41:51.284Z,29.77
2022-10-06T15:44:19.608Z,31.48
2022-10-06T15:46:51.393Z,27.73
2022-10-06T15:49:26.191Z,29.45
2022-10-06T15:51:59.270Z,28.17
2022-10-06T15:54:30.682Z,28.45
2022-10-06T15:56:59.097Z,29.88
2022-10-06T15:59:27.464Z,23.83
2022-10-06T16:01:57.295Z,30.05
2022-10-06T16:04:25.654Z,27.23
2022-10-06T16:06:56.190Z,23.83
2022-10-06T16:09:27.839Z,26.02
2022-10-06T16:11:55.979Z,23.80
2022-10-06T16:14:23.726Z,20.33
2022-10-06T16:16:50.784Z,23.08
2022-10-06T16:19:18.264Z,20.48
2022-10-06T16:21:48.686Z,23.63
2022-10-06T16:24:19.781Z,22.33
2022-10-06T16:26:47.257Z,21.88
2022-10-06T16:29:19.435Z,22.80
2022-10-06T16:34:13.724Z,17.50
2022-10-06T16:36:41.082Z,18.17
2022-10-06T16:39:15.193Z,21.30
2022-10-06T16:41:42.028Z,17.83
2022-10-06T16:44:08.827Z,25.20
2022-10-06T16:46:35.530Z,18.67
2022-10-06T16:49:03.980Z,17.35
2022-10-06T16:51:33.182Z,20.60
2022-10-06T16:54:01.583Z,21.88
2022-10-06T16:56:31.005Z,17.80
2022-10-06T16:59:04.651Z,16.75
2022-10-06T17:01:34.519Z,17.50
2022-10-06T17:04:06.506Z,16.52
2022-10-06T17:09:08.242Z,19.90
2022-10-06T17:11:36.151Z,14.55
2022-10-06T17:14:04.323Z,22.77
2022-10-06T17:16:34.418Z,17.02
2022-10-06T17:19:01.341Z,16.35
2022-10-06T17:24:17.798Z,13.80
2022-10-06T17:26:47.261Z,14.02
2022-10-06T17:29:18.141Z,18.75
2022-10-06T17:31:45.838Z,15.20
2022-10-06T17:34:20.051Z,18.80
2022-10-06T17:36:49.344Z,15.45
2022-10-06T17:39:18.517Z,15.57
2022-10-06T17:41:46.840Z,12.63
2022-10-06T17:44:21.335Z,13.48
2022-10-06T17:46:50.627Z,14.38
2022-10-06T17:49:23.751Z,12.65
2022-10-06T17:51:53.456Z,12.35
2022-10-06T17:54:22.758Z,16.98
2022-10-06T17:56:51.797Z,15.93
2022-10-06T17:59:24.594Z,18.90
2022-10-06T18:01:56.459Z,20.08
2022-10-06T18:04:23.951Z,15.93
2022-10-06T18:06:55.716Z,13.45
2022-10-06T18:09:23.219Z,9.95
2022-10-06T18:11:54.911Z,11.48
2022-10-06T18:14:24.320Z,9.55
2022-10-06T18:16:56.850Z,10.85
2022-10-06T18:19:28.506Z,12.48
2022-10-06T18:21:57.187Z,9.45
2022-10-06T18:24:26.283Z,11.95
2022-10-06T18:26:56.192Z,11.10
2022-10-06T18:29:25.734Z,8.65
2022-10-06T18:31:53.362Z,11.15
2022-10-06T18:37:07.429Z,9.55
2022-10-06T18:39:34.164Z,9.30
2022-10-06T18:42:03.532Z,9.68
2022-10-06T18:44:48.604Z,8.55
2022-10-06T18:47:33.979Z,8.20
2022-10-06T18:50:00.844Z,9.48
2022-10-06T18:52:27.495Z,9.07
2022-10-06T18:54:54.103Z,7.50
2022-10-06T18:57:25.102Z,10.68
2022-10-06T18:59:54.390Z,11.07
2022-10-06T19:02:21.141Z,8.55
2022-10-06T19:04:48.367Z,10.32
2022-10-06T19:07:15.055Z,9.85
2022-10-06T19:09:46.484Z,10.95
2022-10-06T19:12:13.411Z,9.55
2022-10-06T19:14:46.880Z,8.43
2022-10-06T19:17:15.858Z,10.00
2022-10-06T19:19:55.305Z,10.00
2022-10-06T19:22:24.639Z,8.25
2022-10-06T19:24:52.129Z,8.65
2022-10-06T19:27:24.039Z,8.30
2022-10-06T19:29:56.524Z,9.48
2022-10-06T19:32:32.752Z,8.88
2022-10-06T19:35:00.229Z,8.68
2022-10-06T19:37:29.059Z,12.15
2022-10-06T19:39:56.015Z,10.73
2022-10-06T19:42:41.371Z,10.25
2022-10-06T19:45:09.622Z,11.57
2022-10-06T19:47:36.362Z,11.23
2022-10-06T19:50:08.805Z,9.82
2022-10-06T19:52:38.616Z,9.93
2022-10-06T19:55:05.655Z,9.32
2022-10-06T19:57:33.565Z,8.25
2022-10-06T20:00:00.572Z,10.43
2022-10-06T20:02:28.535Z,9.63
2022-10-06T20:04:55.225Z,11.75
2022-10-06T20:07:25.277Z,9.98
2022-10-06T20:09:51.897Z,8.80
2022-10-06T20:12:23.649Z,9.65
2022-10-06T20:14:51.529Z,8.68
2022-10-06T20:17:18.167Z,8.93
2022-10-06T20:19:46.647Z,8.57
2022-10-06T20:22:13.812Z,8.95
2022-10-06T20:24:40.481Z,10.73
2022-10-06T20:27:07.101Z,10.27
2022-10-06T20:29:34.599Z,9.38
2022-10-06T20:32:01.277Z,10.95
2022-10-06T20:34:32.731Z,9.60
2022-10-06T20:37:02.360Z,11.35
2022-10-06T20:39:49.634Z,8.65
2022-10-06T20:42:16.935Z,9.18
2022-10-06T20:44:44.195Z,10.02
2022-10-06T20:47:12.169Z,10.32
2022-10-06T20:49:39.282Z,9.85
2022-10-06T20:52:06.135Z,9.35
2022-10-06T20:57:42.537Z,10.27
2022-10-06T21:00:10.067Z,9.85
2022-10-06T21:02:36.714Z,9.93
2022-10-06T21:05:03.538Z,23.20
2022-10-06T21:07:30.217Z,30.10
2022-10-06T21:09:56.867Z,28.63
2022-10-06T21:12:23.436Z,30.75
2022-10-06T21:14:50.105Z,29.08
2022-10-06T21:17:16.706Z,31.65
2022-10-06T21:19:43.324Z,29.02
2022-10-06T21:22:10.027Z,35.38
2022-10-06T21:24:36.843Z,34.03
2022-10-06T21:27:03.633Z,25.83
2022-10-06T21:29:30.259Z,32.22
2022-10-06T21:31:56.877Z,32.60
2022-10-06T21:34:23.463Z,29.83
2022-10-06T21:36:50.465Z,24.98
2022-10-06T21:39:17.233Z,30.70
2022-10-06T21:41:43.882Z,25.25
2022-10-06T21:44:19.884Z,28.00
2022-10-06T21:46:54.136Z,26.65
2022-10-06T21:49:23.119Z,27.15
2022-10-06T21:51:52.750Z,24.98
2022-10-06T21:54:20.863Z,28.23
2022-10-06T21:56:47.647Z,27.65
2022-10-06T21:59:14.714Z,26.38
2022-10-06T22:01:44.005Z,25.52
2022-10-06T22:04:12.665Z,25.30
2022-10-06T22:06:41.089Z,24.95
2022-10-06T22:09:12.258Z,24.67
2022-10-06T22:11:40.270Z,23.45
2022-10-06T22:14:10.214Z,23.80
2022-10-06T22:16:38.160Z,25.73
2022-10-06T22:19:07.849Z,24.48
2022-10-06T22:21:43.785Z,22.15
2022-10-06T22:24:16.377Z,18.58
2022-10-06T22:26:43.663Z,17.13
2022-10-06T22:29:12.646Z,20.77
2022-10-06T22:31:41.120Z,19.45
2022-10-06T22:34:09.546Z,17.45
2022-10-06T22:36:36.229Z,16.20
2022-10-06T22:39:03.073Z,18.73
2022-10-06T22:41:30.098Z,15.48
2022-10-06T22:43:58.078Z,16.98
2022-10-06T22:46:30.047Z,14.77
2022-10-06T22:48:57.233Z,18.35
2022-10-06T22:51:24.615Z,15.13
2022-10-06T22:53:59.008Z,14.32
2022-10-06T22:56:31.267Z,14.05
2022-10-06T22:58:59.495Z,13.68
2022-10-06T23:01:27.403Z,17.27
2022-10-06T23:03:55.487Z,17.33
2022-10-06T23:06:22.358Z,14.27
2022-10-06T23:08:48.978Z,12.90
2022-10-06T23:11:18.412Z,17.25
2022-10-06T23:13:45.366Z,15.95
2022-10-06T23:16:14.467Z,15.77
2022-10-06T23:18:42.104Z,15.48
2022-10-06T23:21:13.789Z,14.57
2022-10-06T23:23:40.429Z,14.35
2022-10-06T23:26:12.719Z,15.30
2022-10-06T23:28:39.443Z,12.43
2022-10-06T23:31:08.255Z,15.77
2022-10-06T23:33:35.656Z,13.65
2022-10-06T23:36:05.396Z,14.13
2022-10-06T23:38:32.485Z,12.52
2022-10-06T23:40:59.098Z,15.13
2022-10-06T23:43:25.999Z,11.13
2022-10-06T23:45:52.708Z,14.38
2022-10-06T23:48:19.341Z,12.60
2022-10-06T23:51:18.737Z,13.15
2022-10-06T23:53:45.810Z,12.70
2022-10-06T23:56:13.363Z,11.73
2022-10-06T23:58:41.770Z,11.05
